sensor_id;sensor_type;location;lat;lon;timestamp;P1;durP1;ratioP1;P2;durP2;ratioP2
15633;SDS011;14654;48.898;8.308;2023-01-20T00:00:09;15.43;;;13.83;;
15633;SDS011;14654;48.898;8.308;2023-01-20T00:02:35;16.33;;;14.60;;
15633;SDS011;14654;48.898;8.308;2023-01-20T00:05:07;15.37;;;13.77;;
15633;SDS011;14654;48.898;8.308;2023-01-20T00:07:32;14.93;;;13.37;;
15633;SDS011;14654;48.898;8.308;2023-01-20T00:09:58;14.47;;;13.07;;
15633;SDS011;14654;48.898;8.308;2023-01-20T00:12:24;15.13;;;13.63;;
15633;SDS011;14654;48.898;8.308;2023-01-20T00:14:49;15.27;;;13.60;;
15633;SDS011;14654;48.898;8.308;2023-01-20T00:17:15;14.43;;;12.93;;
15633;SDS011;14654;48.898;8.308;2023-01-20T00:19:40;14.87;;;13.27;;
15633;SDS011;14654;48.898;8.308;2023-01-20T00:22:05;15.20;;;13.63;;
15633;SDS011;14654;48.898;8.308;2023-01-20T00:24:30;13.80;;;12.37;;
15633;SDS011;14654;48.898;8.308;2023-01-20T00:26:57;13.50;;;12.10;;
15633;SDS011;14654;48.898;8.308;2023-01-20T00:29:22;12.30;;;11.00;;
15633;SDS011;14654;48.898;8.308;2023-01-20T00:31:47;13.87;;;12.43;;
15633;SDS011;14654;48.898;8.308;2023-01-20T00:34:12;12.20;;;10.90;;
15633;SDS011;14654;48.898;8.308;2023-01-20T00:36:38;11.80;;;10.57;;
15633;SDS011;14654;48.898;8.308;2023-01-20T00:39:03;12.10;;;10.70;;
15633;SDS011;14654;48.898;8.308;2023-01-20T00:41:29;10.93;;;9.70;;
15633;SDS011;14654;48.898;8.308;2023-01-20T00:43:54;11.47;;;9.93;;
15633;SDS011;14654;48.898;8.308;2023-01-20T00:46:20;11.20;;;10.00;;
15633;SDS011;14654;48.898;8.308;2023-01-20T00:48:47;9.83;;;8.87;;
15633;SDS011;14654;48.898;8.308;2023-01-20T00:51:12;10.73;;;9.17;;
15633;SDS011;14654;48.898;8.308;2023-01-20T00:53:37;10.33;;;9.33;;
15633;SDS011;14654;48.898;8.308;2023-01-20T00:56:03;9.97;;;8.87;;
15633;SDS011;14654;48.898;8.308;2023-01-20T00:58:28;10.70;;;9.60;;
15633;SDS011;14654;48.898;8.308;2023-01-20T01:00:54;11.43;;;9.97;;
15633;SDS011;14654;48.898;8.308;2023-01-20T01:03:20;10.37;;;9.27;;
15633;SDS011;14654;48.898;8.308;2023-01-20T01:05:46;10.23;;;9.20;;
15633;SDS011;14654;48.898;8.308;2023-01-20T01:08:12;9.70;;;8.53;;
15633;SDS011;14654;48.898;8.308;2023-01-20T01:10:37;9.37;;;8.47;;
15633;SDS011;14654;48.898;8.308;2023-01-20T01:13:03;9.53;;;8.50;;
15633;SDS011;14654;48.898;8.308;2023-01-20T01:15:29;9.10;;;8.20;;
15633;SDS011;14654;48.898;8.308;2023-01-20T01:17:55;9.97;;;8.97;;
15633;SDS011;14654;48.898;8.308;2023-01-20T01:20:21;9.83;;;8.20;;
15633;SDS011;14654;48.898;8.308;2023-01-20T01:22:47;9.03;;;8.13;;
15633;SDS011;14654;48.898;8.308;2023-01-20T01:25:12;9.20;;;8.23;;
15633;SDS011;14654;48.898;8.308;2023-01-20T01:27:38;9.10;;;8.20;;
15633;SDS011;14654;48.898;8.308;2023-01-20T01:30:03;8.87;;;8.00;;
15633;SDS011;14654;48.898;8.308;2023-01-20T01:32:29;9.77;;;8.87;;
15633;SDS011;14654;48.898;8.308;2023-01-20T01:34:55;8.87;;;8.07;;
15633;SDS011;14654;48.898;8.308;2023-01-20T01:37:20;9.43;;;8.40;;
15633;SDS011;14654;48.898;8.308;2023-01-20T01:39:46;9.73;;;8.17;;
15633;SDS011;14654;48.898;8.308;2023-01-20T01:42:12;9.07;;;8.00;;
15633;SDS011;14654;48.898;8.308;2023-01-20T01:44:38;8.20;;;7.40;;
15633;SDS011;14654;48.898;8.308;2023-01-20T01:47:55;7.67;;;6.97;;
15633;SDS011;14654;48.898;8.308;2023-01-20T01:50:30;8.03;;;7.23;;
15633;SDS011;14654;48.898;8.308;2023-01-20T01:53:00;8.03;;;6.73;;
15633;SDS011;14654;48.898;8.308;2023-01-20T01:55:26;7.63;;;6.87;;
15633;SDS011;14654;48.898;8.308;2023-01-20T01:57:55;7.13;;;6.43;;
15633;SDS011;14654;48.898;8.308;2023-01-20T02:00:22;7.30;;;6.13;;
15633;SDS011;14654;48.898;8.308;2023-01-20T02:02:47;7.00;;;6.30;;
15633;SDS011;14654;48.898;8.308;2023-01-20T02:05:13;6.13;;;5.53;;
15633;SDS011;14654;48.898;8.308;2023-01-20T02:07:41;6.77;;;6.07;;
15633;SDS011;14654;48.898;8.308;2023-01-20T02:10:09;7.10;;;6.03;;
15633;SDS011;14654;48.898;8.308;2023-01-20T02:12:35;7.13;;;6.43;;
15633;SDS011;14654;48.898;8.308;2023-01-20T02:15:00;6.27;;;5.67;;
15633;SDS011;14654;48.898;8.308;2023-01-20T02:17:29;6.40;;;5.70;;
15633;SDS011;14654;48.898;8.308;2023-01-20T02:25:44;6.90;;;6.20;;
15633;SDS011;14654;48.898;8.308;2023-01-20T02:36:49;6.17;;;5.63;;
15633;SDS011;14654;48.898;8.308;2023-01-20T02:39:27;6.50;;;5.90;;
15633;SDS011;14654;48.898;8.308;2023-01-20T02:47:21;5.90;;;5.23;;
15633;SDS011;14654;48.898;8.308;2023-01-20T02:52:34;5.70;;;5.20;;
15633;SDS011;14654;48.898;8.308;2023-01-20T02:55:05;6.23;;;5.40;;
15633;SDS011;14654;48.898;8.308;2023-01-20T02:57:37;6.70;;;5.70;;
15633;SDS011;14654;48.898;8.308;2023-01-20T03:00:09;7.47;;;5.80;;
15633;SDS011;14654;48.898;8.308;2023-01-20T03:02:40;7.40;;;6.70;;
15633;SDS011;14654;48.898;8.308;2023-01-20T03:05:09;7.00;;;6.30;;
15633;SDS011;14654;48.898;8.308;2023-01-20T03:07:40;6.10;;;5.50;;
15633;SDS011;14654;48.898;8.308;2023-01-20T03:10:08;6.60;;;6.00;;
15633;SDS011;14654;48.898;8.308;2023-01-20T03:12:44;7.57;;;5.67;;
15633;SDS011;14654;48.898;8.308;2023-01-20T03:15:14;6.77;;;5.97;;
15633;SDS011;14654;48.898;8.308;2023-01-20T03:17:40;6.70;;;5.80;;
15633;SDS011;14654;48.898;8.308;2023-01-20T03:20:06;5.87;;;5.33;;
15633;SDS011;14654;48.898;8.308;2023-01-20T03:22:32;6.67;;;5.77;;
15633;SDS011;14654;48.898;8.308;2023-01-20T03:24:57;6.07;;;5.47;;
15633;SDS011;14654;48.898;8.308;2023-01-20T03:27:23;6.20;;;5.50;;
15633;SDS011;14654;48.898;8.308;2023-01-20T03:29:49;6.20;;;5.60;;
15633;SDS011;14654;48.898;8.308;2023-01-20T03:32:14;6.50;;;5.80;;
15633;SDS011;14654;48.898;8.308;2023-01-20T03:34:41;6.40;;;5.80;;
15633;SDS011;14654;48.898;8.308;2023-01-20T03:37:08;5.67;;;5.17;;
15633;SDS011;14654;48.898;8.308;2023-01-20T03:39:36;5.97;;;5.37;;
15633;SDS011;14654;48.898;8.308;2023-01-20T03:42:14;5.70;;;4.90;;
15633;SDS011;14654;48.898;8.308;2023-01-20T03:55:23;5.17;;;4.67;;
15633;SDS011;14654;48.898;8.308;2023-01-20T04:00:36;5.60;;;4.63;;
15633;SDS011;14654;48.898;8.308;2023-01-20T04:03:07;4.93;;;4.43;;
15633;SDS011;14654;48.898;8.308;2023-01-20T04:05:37;5.27;;;4.77;;
15633;SDS011;14654;48.898;8.308;2023-01-20T04:08:05;5.33;;;4.47;;
15633;SDS011;14654;48.898;8.308;2023-01-20T04:10:33;4.80;;;4.30;;
15633;SDS011;14654;48.898;8.308;2023-01-20T04:13:02;5.40;;;4.40;;
15633;SDS011;14654;48.898;8.308;2023-01-20T04:15:30;4.87;;;4.47;;
15633;SDS011;14654;48.898;8.308;2023-01-20T04:20:37;5.17;;;4.33;;
15633;SDS011;14654;48.898;8.308;2023-01-20T04:23:02;4.50;;;4.10;;
15633;SDS011;14654;48.898;8.308;2023-01-20T04:25:30;3.87;;;3.53;;
15633;SDS011;14654;48.898;8.308;2023-01-20T04:27:56;4.50;;;4.10;;
15633;SDS011;14654;48.898;8.308;2023-01-20T04:30:22;4.23;;;3.83;;
15633;SDS011;14654;48.898;8.308;2023-01-20T04:32:47;4.23;;;3.83;;
15633;SDS011;14654;48.898;8.308;2023-01-20T04:35:13;3.83;;;3.43;;
15633;SDS011;14654;48.898;8.308;2023-01-20T04:37:40;4.80;;;3.63;;
15633;SDS011;14654;48.898;8.308;2023-01-20T04:40:06;4.53;;;3.80;;
15633;SDS011;14654;48.898;8.308;2023-01-20T04:42:31;4.07;;;3.40;;
15633;SDS011;14654;48.898;8.308;2023-01-20T04:44:57;4.23;;;3.67;;
15633;SDS011;14654;48.898;8.308;2023-01-20T04:47:22;4.83;;;4.33;;
15633;SDS011;14654;48.898;8.308;2023-01-20T04:49:48;5.13;;;3.63;;
15633;SDS011;14654;48.898;8.308;2023-01-20T04:52:13;4.20;;;3.80;;
15633;SDS011;14654;48.898;8.308;2023-01-20T04:54:38;4.70;;;4.20;;
15633;SDS011;14654;48.898;8.308;2023-01-20T04:57:04;6.33;;;5.53;;
15633;SDS011;14654;48.898;8.308;2023-01-20T04:59:29;7.10;;;5.47;;
15633;SDS011;14654;48.898;8.308;2023-01-20T05:01:54;6.67;;;5.97;;
15633;SDS011;14654;48.898;8.308;2023-01-20T05:04:20;7.73;;;6.73;;
15633;SDS011;14654;48.898;8.308;2023-01-20T05:06:45;8.43;;;6.60;;
15633;SDS011;14654;48.898;8.308;2023-01-20T05:09:14;7.33;;;6.20;;
15633;SDS011;14654;48.898;8.308;2023-01-20T05:11:41;7.30;;;5.87;;
15633;SDS011;14654;48.898;8.308;2023-01-20T05:14:07;7.63;;;6.13;;
15633;SDS011;14654;48.898;8.308;2023-01-20T05:16:32;6.20;;;5.17;;
15633;SDS011;14654;48.898;8.308;2023-01-20T05:18:59;5.87;;;5.30;;
15633;SDS011;14654;48.898;8.308;2023-01-20T05:21:24;6.63;;;5.43;;
15633;SDS011;14654;48.898;8.308;2023-01-20T05:23:53;6.47;;;5.20;;
15633;SDS011;14654;48.898;8.308;2023-01-20T05:26:19;5.57;;;5.07;;
15633;SDS011;14654;48.898;8.308;2023-01-20T05:28:46;4.50;;;4.10;;
15633;SDS011;14654;48.898;8.308;2023-01-20T05:31:11;5.30;;;4.37;;
15633;SDS011;14654;48.898;8.308;2023-01-20T05:33:37;5.70;;;5.03;;
15633;SDS011;14654;48.898;8.308;2023-01-20T05:36:07;5.53;;;4.60;;
15633;SDS011;14654;48.898;8.308;2023-01-20T05:38:33;7.10;;;5.57;;
15633;SDS011;14654;48.898;8.308;2023-01-20T05:40:59;6.20;;;5.17;;
15633;SDS011;14654;48.898;8.308;2023-01-20T05:43:29;7.20;;;5.43;;
15633;SDS011;14654;48.898;8.308;2023-01-20T05:45:55;5.93;;;5.33;;
15633;SDS011;14654;48.898;8.308;2023-01-20T05:48:21;5.83;;;5.30;;
15633;SDS011;14654;48.898;8.308;2023-01-20T05:50:46;6.43;;;5.53;;
15633;SDS011;14654;48.898;8.308;2023-01-20T05:53:11;6.33;;;5.73;;
15633;SDS011;14654;48.898;8.308;2023-01-20T05:55:37;6.00;;;5.30;;
15633;SDS011;14654;48.898;8.308;2023-01-20T05:58:03;7.00;;;5.83;;
15633;SDS011;14654;48.898;8.308;2023-01-20T06:00:29;7.80;;;5.80;;
15633;SDS011;14654;48.898;8.308;2023-01-20T06:02:54;6.37;;;5.20;;
15633;SDS011;14654;48.898;8.308;2023-01-20T06:05:20;6.20;;;5.60;;
15633;SDS011;14654;48.898;8.308;2023-01-20T06:07:45;6.27;;;5.67;;
15633;SDS011;14654;48.898;8.308;2023-01-20T06:10:13;7.37;;;5.43;;
15633;SDS011;14654;48.898;8.308;2023-01-20T06:12:39;6.30;;;5.27;;
15633;SDS011;14654;48.898;8.308;2023-01-20T06:15:04;6.97;;;6.13;;
15633;SDS011;14654;48.898;8.308;2023-01-20T06:17:30;7.17;;;6.33;;
15633;SDS011;14654;48.898;8.308;2023-01-20T06:19:55;7.63;;;6.27;;
15633;SDS011;14654;48.898;8.308;2023-01-20T06:22:20;6.47;;;5.77;;
15633;SDS011;14654;48.898;8.308;2023-01-20T06:24:46;6.00;;;5.40;;
15633;SDS011;14654;48.898;8.308;2023-01-20T06:27:11;6.27;;;5.67;;
15633;SDS011;14654;48.898;8.308;2023-01-20T06:29:37;5.83;;;5.20;;
15633;SDS011;14654;48.898;8.308;2023-01-20T06:32:02;6.70;;;5.40;;
15633;SDS011;14654;48.898;8.308;2023-01-20T06:34:27;5.33;;;4.83;;
15633;SDS011;14654;48.898;8.308;2023-01-20T06:36:53;6.40;;;5.70;;
15633;SDS011;14654;48.898;8.308;2023-01-20T06:39:18;5.70;;;5.10;;
15633;SDS011;14654;48.898;8.308;2023-01-20T06:41:43;6.87;;;5.40;;
15633;SDS011;14654;48.898;8.308;2023-01-20T06:44:09;5.93;;;5.13;;
15633;SDS011;14654;48.898;8.308;2023-01-20T06:46:34;7.23;;;5.60;;
15633;SDS011;14654;48.898;8.308;2023-01-20T06:48:59;5.97;;;5.37;;
15633;SDS011;14654;48.898;8.308;2023-01-20T06:51:26;6.00;;;5.50;;
15633;SDS011;14654;48.898;8.308;2023-01-20T06:53:53;6.07;;;5.47;;
15633;SDS011;14654;48.898;8.308;2023-01-20T06:56:18;5.87;;;4.80;;
15633;SDS011;14654;48.898;8.308;2023-01-20T06:58:44;6.33;;;5.47;;
15633;SDS011;14654;48.898;8.308;2023-01-20T07:01:14;6.37;;;5.73;;
15633;SDS011;14654;48.898;8.308;2023-01-20T07:03:42;19.07;;;13.47;;
15633;SDS011;14654;48.898;8.308;2023-01-20T07:06:41;16.17;;;11.37;;
15633;SDS011;14654;48.898;8.308;2023-01-20T07:09:04;12.90;;;9.33;;
15633;SDS011;14654;48.898;8.308;2023-01-20T07:11:32;9.53;;;7.77;;
15633;SDS011;14654;48.898;8.308;2023-01-20T07:13:59;7.93;;;6.57;;
15633;SDS011;14654;48.898;8.308;2023-01-20T07:16:25;7.90;;;6.37;;
15633;SDS011;14654;48.898;8.308;2023-01-20T07:18:50;8.17;;;6.57;;
15633;SDS011;14654;48.898;8.308;2023-01-20T07:21:17;6.50;;;5.67;;
15633;SDS011;14654;48.898;8.308;2023-01-20T07:23:43;5.77;;;5.17;;
15633;SDS011;14654;48.898;8.308;2023-01-20T07:26:10;6.47;;;5.77;;
15633;SDS011;14654;48.898;8.308;2023-01-20T07:28:38;6.00;;;5.27;;
15633;SDS011;14654;48.898;8.308;2023-01-20T07:31:04;6.00;;;5.40;;
15633;SDS011;14654;48.898;8.308;2023-01-20T07:33:30;6.07;;;4.90;;
15633;SDS011;14654;48.898;8.308;2023-01-20T07:35:56;5.30;;;4.80;;
15633;SDS011;14654;48.898;8.308;2023-01-20T07:38:21;6.07;;;5.20;;
15633;SDS011;14654;48.898;8.308;2023-01-20T07:40:46;6.10;;;5.40;;
15633;SDS011;14654;48.898;8.308;2023-01-20T07:43:12;7.87;;;6.70;;
15633;SDS011;14654;48.898;8.308;2023-01-20T07:45:37;8.63;;;6.43;;
15633;SDS011;14654;48.898;8.308;2023-01-20T07:48:03;6.63;;;5.97;;
15633;SDS011;14654;48.898;8.308;2023-01-20T07:50:28;7.87;;;6.60;;
15633;SDS011;14654;48.898;8.308;2023-01-20T07:52:54;9.77;;;7.57;;
15633;SDS011;14654;48.898;8.308;2023-01-20T07:55:19;9.00;;;7.57;;
15633;SDS011;14654;48.898;8.308;2023-01-20T07:57:45;8.87;;;7.40;;
15633;SDS011;14654;48.898;8.308;2023-01-20T08:00:10;7.73;;;6.77;;
15633;SDS011;14654;48.898;8.308;2023-01-20T08:02:36;7.43;;;6.73;;
15633;SDS011;14654;48.898;8.308;2023-01-20T08:05:02;6.80;;;6.20;;
15633;SDS011;14654;48.898;8.308;2023-01-20T08:07:28;9.00;;;6.80;;
15633;SDS011;14654;48.898;8.308;2023-01-20T08:09:54;7.20;;;6.37;;
15633;SDS011;14654;48.898;8.308;2023-01-20T08:12:19;6.63;;;5.90;;
15633;SDS011;14654;48.898;8.308;2023-01-20T08:14:44;5.90;;;5.30;;
15633;SDS011;14654;48.898;8.308;2023-01-20T08:17:09;6.60;;;5.47;;
15633;SDS011;14654;48.898;8.308;2023-01-20T08:19:35;6.90;;;5.90;;
15633;SDS011;14654;48.898;8.308;2023-01-20T08:22:00;6.23;;;5.63;;
15633;SDS011;14654;48.898;8.308;2023-01-20T08:24:25;7.93;;;5.97;;
15633;SDS011;14654;48.898;8.308;2023-01-20T08:26:51;6.70;;;5.83;;
15633;SDS011;14654;48.898;8.308;2023-01-20T08:29:16;7.43;;;5.67;;
15633;SDS011;14654;48.898;8.308;2023-01-20T08:31:41;6.93;;;5.80;;
15633;SDS011;14654;48.898;8.308;2023-01-20T08:34:07;6.37;;;5.73;;
15633;SDS011;14654;48.898;8.308;2023-01-20T08:36:33;7.03;;;6.20;;
15633;SDS011;14654;48.898;8.308;2023-01-20T08:39:01;6.40;;;5.80;;
15633;SDS011;14654;48.898;8.308;2023-01-20T08:41:32;6.93;;;5.80;;
15633;SDS011;14654;48.898;8.308;2023-01-20T08:44:00;6.20;;;5.20;;
15633;SDS011;14654;48.898;8.308;2023-01-20T08:46:26;6.13;;;5.53;;
15633;SDS011;14654;48.898;8.308;2023-01-20T08:48:52;6.13;;;5.33;;
15633;SDS011;14654;48.898;8.308;2023-01-20T08:51:26;5.63;;;5.03;;
15633;SDS011;14654;48.898;8.308;2023-01-20T08:53:55;5.57;;;4.97;;
15633;SDS011;14654;48.898;8.308;2023-01-20T08:56:21;5.67;;;5.17;;
15633;SDS011;14654;48.898;8.308;2023-01-20T08:58:46;6.13;;;5.53;;
15633;SDS011;14654;48.898;8.308;2023-01-20T09:01:13;6.87;;;6.10;;
15633;SDS011;14654;48.898;8.308;2023-01-20T09:03:40;8.00;;;7.20;;
15633;SDS011;14654;48.898;8.308;2023-01-20T09:06:06;8.60;;;7.70;;
15633;SDS011;14654;48.898;8.308;2023-01-20T09:08:32;9.73;;;8.83;;
15633;SDS011;14654;48.898;8.308;2023-01-20T09:11:05;9.03;;;8.13;;
15633;SDS011;14654;48.898;8.308;2023-01-20T09:13:32;10.00;;;9.07;;
15633;SDS011;14654;48.898;8.308;2023-01-20T09:15:57;9.07;;;8.17;;
15633;SDS011;14654;48.898;8.308;2023-01-20T09:18:23;9.47;;;8.57;;
15633;SDS011;14654;48.898;8.308;2023-01-20T09:20:48;9.93;;;8.47;;
15633;SDS011;14654;48.898;8.308;2023-01-20T09:23:13;9.40;;;8.40;;
15633;SDS011;14654;48.898;8.308;2023-01-20T09:25:39;9.90;;;8.90;;
15633;SDS011;14654;48.898;8.308;2023-01-20T09:28:04;10.37;;;9.37;;
15633;SDS011;14654;48.898;8.308;2023-01-20T09:30:29;10.33;;;9.10;;
15633;SDS011;14654;48.898;8.308;2023-01-20T09:32:55;10.63;;;9.53;;
15633;SDS011;14654;48.898;8.308;2023-01-20T09:35:24;10.33;;;9.33;;
15633;SDS011;14654;48.898;8.308;2023-01-20T09:37:49;10.93;;;8.77;;
15633;SDS011;14654;48.898;8.308;2023-01-20T09:40:44;9.53;;;8.60;;
15633;SDS011;14654;48.898;8.308;2023-01-20T09:43:40;9.93;;;9.03;;
15633;SDS011;14654;48.898;8.308;2023-01-20T09:46:22;10.13;;;9.17;;
15633;SDS011;14654;48.898;8.308;2023-01-20T09:54:48;12.13;;;10.93;;
15633;SDS011;14654;48.898;8.308;2023-01-20T09:57:20;11.20;;;9.40;;
15633;SDS011;14654;48.898;8.308;2023-01-20T09:59:49;10.60;;;9.60;;
15633;SDS011;14654;48.898;8.308;2023-01-20T10:02:24;10.73;;;9.70;;
15633;SDS011;14654;48.898;8.308;2023-01-20T10:04:57;11.73;;;10.53;;
15633;SDS011;14654;48.898;8.308;2023-01-20T10:07:36;11.20;;;10.17;;
15633;SDS011;14654;48.898;8.308;2023-01-20T10:10:12;12.20;;;10.97;;
15633;SDS011;14654;48.898;8.308;2023-01-20T10:15:34;13.27;;;11.93;;
15633;SDS011;14654;48.898;8.308;2023-01-20T10:19:02;14.17;;;12.80;;
15633;SDS011;14654;48.898;8.308;2023-01-20T10:21:30;14.80;;;13.30;;
15633;SDS011;14654;48.898;8.308;2023-01-20T10:23:59;14.67;;;13.17;;
15633;SDS011;14654;48.898;8.308;2023-01-20T10:26:33;14.10;;;12.77;;
15633;SDS011;14654;48.898;8.308;2023-01-20T10:29:08;15.37;;;13.87;;
15633;SDS011;14654;48.898;8.308;2023-01-20T10:31:41;13.80;;;12.50;;
15633;SDS011;14654;48.898;8.308;2023-01-20T10:34:16;14.20;;;12.90;;
15633;SDS011;14654;48.898;8.308;2023-01-20T10:36:45;14.77;;;13.30;;
15633;SDS011;14654;48.898;8.308;2023-01-20T10:42:03;13.10;;;11.83;;
15633;SDS011;14654;48.898;8.308;2023-01-20T10:44:34;14.87;;;13.37;;
15633;SDS011;14654;48.898;8.308;2023-01-20T10:52:17;15.23;;;13.83;;
15633;SDS011;14654;48.898;8.308;2023-01-20T10:57:22;17.63;;;15.53;;
15633;SDS011;14654;48.898;8.308;2023-01-20T10:59:49;15.73;;;14.30;;
15633;SDS011;14654;48.898;8.308;2023-01-20T11:02:25;15.67;;;14.20;;
15633;SDS011;14654;48.898;8.308;2023-01-20T11:05:00;16.17;;;14.77;;
15633;SDS011;14654;48.898;8.308;2023-01-20T11:07:33;15.57;;;14.10;;
15633;SDS011;14654;48.898;8.308;2023-01-20T11:09:59;15.53;;;13.93;;
15633;SDS011;14654;48.898;8.308;2023-01-20T11:12:43;16.07;;;14.57;;
15633;SDS011;14654;48.898;8.308;2023-01-20T11:15:15;15.60;;;14.10;;
15633;SDS011;14654;48.898;8.308;2023-01-20T11:20:45;15.63;;;14.13;;
15633;SDS011;14654;48.898;8.308;2023-01-20T11:23:31;14.37;;;13.03;;
15633;SDS011;14654;48.898;8.308;2023-01-20T11:26:00;15.27;;;13.87;;
15633;SDS011;14654;48.898;8.308;2023-01-20T11:28:36;14.80;;;13.33;;
15633;SDS011;14654;48.898;8.308;2023-01-20T11:31:09;14.23;;;12.93;;
15633;SDS011;14654;48.898;8.308;2023-01-20T11:33:34;13.90;;;12.60;;
15633;SDS011;14654;48.898;8.308;2023-01-20T11:36:04;14.30;;;13.00;;
15633;SDS011;14654;48.898;8.308;2023-01-20T11:38:41;13.73;;;12.47;;
15633;SDS011;14654;48.898;8.308;2023-01-20T11:41:20;14.80;;;13.50;;
15633;SDS011;14654;48.898;8.308;2023-01-20T11:43:50;14.73;;;13.33;;
15633;SDS011;14654;48.898;8.308;2023-01-20T11:46:30;14.43;;;13.03;;
15633;SDS011;14654;48.898;8.308;2023-01-20T11:51:43;13.13;;;11.93;;
15633;SDS011;14654;48.898;8.308;2023-01-20T11:54:14;13.23;;;12.03;;
15633;SDS011;14654;48.898;8.308;2023-01-20T11:56:52;14.43;;;13.10;;
15633;SDS011;14654;48.898;8.308;2023-01-20T11:59:27;14.40;;;13.10;;
15633;SDS011;14654;48.898;8.308;2023-01-20T12:02:20;13.63;;;12.43;;
15633;SDS011;14654;48.898;8.308;2023-01-20T12:09:58;12.97;;;11.70;;
15633;SDS011;14654;48.898;8.308;2023-01-20T12:12:36;12.70;;;11.50;;
15633;SDS011;14654;48.898;8.308;2023-01-20T12:15:03;11.37;;;10.30;;
15633;SDS011;14654;48.898;8.308;2023-01-20T12:20:04;11.47;;;10.47;;
15633;SDS011;14654;48.898;8.308;2023-01-20T12:27:56;10.93;;;9.93;;
15633;SDS011;14654;48.898;8.308;2023-01-20T12:30:45;11.13;;;10.03;;
15633;SDS011;14654;48.898;8.308;2023-01-20T12:52:45;12.70;;;11.50;;
15633;SDS011;14654;48.898;8.308;2023-01-20T13:04:04;8.63;;;7.83;;
15633;SDS011;14654;48.898;8.308;2023-01-20T13:07:03;8.30;;;7.60;;
15633;SDS011;14654;48.898;8.308;2023-01-20T13:10:00;7.83;;;7.13;;
15633;SDS011;14654;48.898;8.308;2023-01-20T13:12:59;7.60;;;6.87;;
15633;SDS011;14654;48.898;8.308;2023-01-20T13:15:36;6.93;;;6.33;;
15633;SDS011;14654;48.898;8.308;2023-01-20T13:21:21;6.83;;;6.23;;
15633;SDS011;14654;48.898;8.308;2023-01-20T13:23:49;6.80;;;6.20;;
15633;SDS011;14654;48.898;8.308;2023-01-20T13:26:16;6.87;;;6.27;;
15633;SDS011;14654;48.898;8.308;2023-01-20T13:28:49;7.20;;;6.53;;
15633;SDS011;14654;48.898;8.308;2023-01-20T13:41:56;7.43;;;6.73;;
15633;SDS011;14654;48.898;8.308;2023-01-20T13:44:32;7.20;;;6.50;;
15633;SDS011;14654;48.898;8.308;2023-01-20T13:46:58;8.53;;;7.83;;
15633;SDS011;14654;48.898;8.308;2023-01-20T13:49:24;13.00;;;11.83;;
15633;SDS011;14654;48.898;8.308;2023-01-20T13:51:52;12.10;;;11.00;;
15633;SDS011;14654;48.898;8.308;2023-01-20T13:56:49;8.97;;;8.27;;
15633;SDS011;14654;48.898;8.308;2023-01-20T13:59:15;8.87;;;8.10;;
15633;SDS011;14654;48.898;8.308;2023-01-20T14:01:40;9.80;;;9.00;;
15633;SDS011;14654;48.898;8.308;2023-01-20T14:04:15;9.50;;;8.77;;
15633;SDS011;14654;48.898;8.308;2023-01-20T14:06:46;8.90;;;8.13;;
15633;SDS011;14654;48.898;8.308;2023-01-20T14:09:23;7.77;;;7.07;;
15633;SDS011;14654;48.898;8.308;2023-01-20T14:11:53;7.37;;;6.77;;
15633;SDS011;14654;48.898;8.308;2023-01-20T14:14:21;6.67;;;6.07;;
15633;SDS011;14654;48.898;8.308;2023-01-20T14:16:48;6.40;;;5.80;;
15633;SDS011;14654;48.898;8.308;2023-01-20T14:22:00;7.40;;;6.57;;
15633;SDS011;14654;48.898;8.308;2023-01-20T14:24:28;7.40;;;6.80;;
15633;SDS011;14654;48.898;8.308;2023-01-20T14:29:40;16.60;;;15.00;;
15633;SDS011;14654;48.898;8.308;2023-01-20T14:34:55;9.77;;;8.97;;
15633;SDS011;14654;48.898;8.308;2023-01-20T14:39:59;7.80;;;7.10;;
15633;SDS011;14654;48.898;8.308;2023-01-20T14:42:29;7.67;;;6.90;;
15633;SDS011;14654;48.898;8.308;2023-01-20T14:44:55;7.37;;;6.77;;
15633;SDS011;14654;48.898;8.308;2023-01-20T14:47:22;7.70;;;7.00;;
15633;SDS011;14654;48.898;8.308;2023-01-20T14:49:49;7.03;;;6.43;;
15633;SDS011;14654;48.898;8.308;2023-01-20T14:52:20;7.00;;;6.40;;
15633;SDS011;14654;48.898;8.308;2023-01-20T14:54:48;7.30;;;6.60;;
15633;SDS011;14654;48.898;8.308;2023-01-20T15:02:51;7.10;;;6.40;;
15633;SDS011;14654;48.898;8.308;2023-01-20T15:05:50;6.40;;;5.90;;
15633;SDS011;14654;48.898;8.308;2023-01-20T15:13:33;7.00;;;6.40;;
15633;SDS011;14654;48.898;8.308;2023-01-20T15:18:44;8.07;;;7.20;;
15633;SDS011;14654;48.898;8.308;2023-01-20T15:21:41;7.43;;;6.73;;
15633;SDS011;14654;48.898;8.308;2023-01-20T15:24:18;6.97;;;6.33;;
15633;SDS011;14654;48.898;8.308;2023-01-20T15:26:44;8.30;;;7.50;;
15633;SDS011;14654;48.898;8.308;2023-01-20T15:29:23;9.83;;;8.30;;
15633;SDS011;14654;48.898;8.308;2023-01-20T15:31:54;8.80;;;7.63;;
15633;SDS011;14654;48.898;8.308;2023-01-20T15:34:21;8.73;;;7.20;;
15633;SDS011;14654;48.898;8.308;2023-01-20T15:36:47;6.27;;;5.67;;
15633;SDS011;14654;48.898;8.308;2023-01-20T15:39:18;6.77;;;5.83;;
15633;SDS011;14654;48.898;8.308;2023-01-20T15:41:45;7.20;;;5.90;;
15633;SDS011;14654;48.898;8.308;2023-01-20T15:44:12;5.30;;;4.80;;
15633;SDS011;14654;48.898;8.308;2023-01-20T15:46:39;6.50;;;4.57;;
15633;SDS011;14654;48.898;8.308;2023-01-20T15:49:08;4.83;;;4.43;;
15633;SDS011;14654;48.898;8.308;2023-01-20T15:51:34;4.60;;;4.00;;
15633;SDS011;14654;48.898;8.308;2023-01-20T15:54:00;4.33;;;3.93;;
15633;SDS011;14654;48.898;8.308;2023-01-20T15:56:26;4.50;;;4.10;;
15633;SDS011;14654;48.898;8.308;2023-01-20T15:58:53;4.10;;;3.70;;
15633;SDS011;14654;48.898;8.308;2023-01-20T16:01:19;4.43;;;3.60;;
15633;SDS011;14654;48.898;8.308;2023-01-20T16:03:48;5.20;;;3.83;;
15633;SDS011;14654;48.898;8.308;2023-01-20T16:06:15;3.83;;;3.53;;
15633;SDS011;14654;48.898;8.308;2023-01-20T16:08:43;4.23;;;3.83;;
15633;SDS011;14654;48.898;8.308;2023-01-20T16:11:10;4.37;;;3.97;;
15633;SDS011;14654;48.898;8.308;2023-01-20T16:13:36;4.40;;;3.80;;
15633;SDS011;14654;48.898;8.308;2023-01-20T16:16:01;4.47;;;3.70;;
15633;SDS011;14654;48.898;8.308;2023-01-20T16:18:27;5.40;;;4.60;;
15633;SDS011;14654;48.898;8.308;2023-01-20T16:20:54;5.00;;;4.50;;
15633;SDS011;14654;48.898;8.308;2023-01-20T16:23:20;4.67;;;4.07;;
15633;SDS011;14654;48.898;8.308;2023-01-20T16:25:45;4.40;;;4.00;;
15633;SDS011;14654;48.898;8.308;2023-01-20T16:28:14;4.87;;;4.20;;
15633;SDS011;14654;48.898;8.308;2023-01-20T16:30:45;4.23;;;3.83;;
15633;SDS011;14654;48.898;8.308;2023-01-20T16:33:18;4.80;;;4.30;;
15633;SDS011;14654;48.898;8.308;2023-01-20T16:35:46;4.37;;;3.90;;
15633;SDS011;14654;48.898;8.308;2023-01-20T16:38:15;4.20;;;3.80;;
15633;SDS011;14654;48.898;8.308;2023-01-20T16:41:00;4.03;;;3.63;;
15633;SDS011;14654;48.898;8.308;2023-01-20T16:43:28;4.07;;;3.60;;
15633;SDS011;14654;48.898;8.308;2023-01-20T16:45:54;4.77;;;4.37;;
15633;SDS011;14654;48.898;8.308;2023-01-20T16:48:20;5.63;;;3.93;;
15633;SDS011;14654;48.898;8.308;2023-01-20T16:50:47;5.33;;;3.80;;
15633;SDS011;14654;48.898;8.308;2023-01-20T16:53:13;4.63;;;4.23;;
15633;SDS011;14654;48.898;8.308;2023-01-20T16:55:41;4.73;;;4.20;;
15633;SDS011;14654;48.898;8.308;2023-01-20T16:58:07;5.30;;;4.80;;
15633;SDS011;14654;48.898;8.308;2023-01-20T17:00:33;4.27;;;3.97;;
15633;SDS011;14654;48.898;8.308;2023-01-20T17:02:58;4.73;;;4.00;;
15633;SDS011;14654;48.898;8.308;2023-01-20T17:05:26;5.50;;;4.23;;
15633;SDS011;14654;48.898;8.308;2023-01-20T17:07:52;4.87;;;3.90;;
15633;SDS011;14654;48.898;8.308;2023-01-20T17:10:19;4.33;;;3.93;;
15633;SDS011;14654;48.898;8.308;2023-01-20T17:12:44;4.80;;;4.40;;
15633;SDS011;14654;48.898;8.308;2023-01-20T17:15:10;5.50;;;4.67;;